sensor_id;sensor_type;location;lat;lon;timestamp;P1;durP1;ratioP1;P2;durP2;ratioP2
31114;SDS011;17764;47.152;9.828;2023-04-24T00:02:12;0.30;;;0.17;;
31114;SDS011;17764;47.152;9.828;2023-04-24T00:04:37;0.20;;;0.20;;
31114;SDS011;17764;47.152;9.828;2023-04-24T00:07:05;0.43;;;0.20;;
31114;SDS011;17764;47.152;9.828;2023-04-24T00:09:31;0.27;;;0.20;;
31114;SDS011;17764;47.152;9.828;2023-04-24T00:11:57;0.30;;;0.10;;
31114;SDS011;17764;47.152;9.828;2023-04-24T00:14:24;0.37;;;0.20;;
31114;SDS011;17764;47.152;9.828;2023-04-24T00:16:50;0.17;;;0.10;;
31114;SDS011;17764;47.152;9.828;2023-04-24T00:19:16;0.00;;;0.00;;
31114;SDS011;17764;47.152;9.828;2023-04-24T00:21:46;1.23;;;0.10;;
31114;SDS011;17764;47.152;9.828;2023-04-24T00:24:14;0.53;;;0.20;;
31114;SDS011;17764;47.152;9.828;2023-04-24T00:26:40;0.40;;;0.10;;
31114;SDS011;17764;47.152;9.828;2023-04-24T00:29:06;0.20;;;0.20;;
31114;SDS011;17764;47.152;9.828;2023-04-24T00:31:33;0.10;;;0.10;;
31114;SDS011;17764;47.152;9.828;2023-04-24T00:34:02;0.10;;;0.10;;
31114;SDS011;17764;47.152;9.828;2023-04-24T00:36:28;0.30;;;0.20;;
31114;SDS011;17764;47.152;9.828;2023-04-24T00:38:55;0.10;;;0.10;;
31114;SDS011;17764;47.152;9.828;2023-04-24T00:41:21;0.50;;;0.20;;
31114;SDS011;17764;47.152;9.828;2023-04-24T00:43:47;0.50;;;0.20;;
31114;SDS011;17764;47.152;9.828;2023-04-24T00:46:14;0.37;;;0.20;;
31114;SDS011;17764;47.152;9.828;2023-04-24T00:48:40;0.20;;;0.10;;
31114;SDS011;17764;47.152;9.828;2023-04-24T00:51:06;0.90;;;0.10;;
31114;SDS011;17764;47.152;9.828;2023-04-24T00:53:32;0.40;;;0.20;;
31114;SDS011;17764;47.152;9.828;2023-04-24T00:55:58;0.43;;;0.20;;
31114;SDS011;17764;47.152;9.828;2023-04-24T00:58:25;0.20;;;0.10;;
31114;SDS011;17764;47.152;9.828;2023-04-24T01:00:54;0.10;;;0.10;;
31114;SDS011;17764;47.152;9.828;2023-04-24T01:03:22;0.10;;;0.10;;
31114;SDS011;17764;47.152;9.828;2023-04-24T01:05:51;0.20;;;0.10;;
31114;SDS011;17764;47.152;9.828;2023-04-24T01:08:17;0.20;;;0.20;;
31114;SDS011;17764;47.152;9.828;2023-04-24T01:10:44;0.10;;;0.10;;
31114;SDS011;17764;47.152;9.828;2023-04-24T01:13:11;0.07;;;0.00;;
31114;SDS011;17764;47.152;9.828;2023-04-24T01:15:37;0.10;;;0.10;;
31114;SDS011;17764;47.152;9.828;2023-04-24T01:18:03;0.80;;;0.23;;
31114;SDS011;17764;47.152;9.828;2023-04-24T01:20:29;0.77;;;0.13;;
31114;SDS011;17764;47.152;9.828;2023-04-24T01:22:56;0.37;;;0.20;;
31114;SDS011;17764;47.152;9.828;2023-04-24T01:25:23;0.97;;;0.10;;
31114;SDS011;17764;47.152;9.828;2023-04-24T01:27:50;0.50;;;0.20;;
31114;SDS011;17764;47.152;9.828;2023-04-24T01:30:16;0.47;;;0.20;;
31114;SDS011;17764;47.152;9.828;2023-04-24T01:32:42;0.20;;;0.10;;
31114;SDS011;17764;47.152;9.828;2023-04-24T01:35:13;0.83;;;0.20;;
31114;SDS011;17764;47.152;9.828;2023-04-24T01:37:39;0.60;;;0.20;;
31114;SDS011;17764;47.152;9.828;2023-04-24T01:40:06;0.10;;;0.10;;
31114;SDS011;17764;47.152;9.828;2023-04-24T01:42:32;0.10;;;0.10;;
31114;SDS011;17764;47.152;9.828;2023-04-24T01:44:59;0.30;;;0.20;;
31114;SDS011;17764;47.152;9.828;2023-04-24T01:47:25;0.10;;;0.10;;
31114;SDS011;17764;47.152;9.828;2023-04-24T01:49:51;0.10;;;0.10;;
31114;SDS011;17764;47.152;9.828;2023-04-24T01:52:17;1.60;;;0.30;;
31114;SDS011;17764;47.152;9.828;2023-04-24T01:54:43;1.87;;;0.30;;
31114;SDS011;17764;47.152;9.828;2023-04-24T01:57:10;1.07;;;0.30;;
31114;SDS011;17764;47.152;9.828;2023-04-24T01:59:36;0.57;;;0.20;;
31114;SDS011;17764;47.152;9.828;2023-04-24T02:02:02;0.20;;;0.20;;
31114;SDS011;17764;47.152;9.828;2023-04-24T02:04:28;0.50;;;0.20;;
31114;SDS011;17764;47.152;9.828;2023-04-24T02:06:54;0.53;;;0.30;;
31114;SDS011;17764;47.152;9.828;2023-04-24T02:09:20;0.57;;;0.37;;
31114;SDS011;17764;47.152;9.828;2023-04-24T02:11:46;0.60;;;0.27;;
31114;SDS011;17764;47.152;9.828;2023-04-24T02:14:12;0.73;;;0.30;;
31114;SDS011;17764;47.152;9.828;2023-04-24T02:16:38;0.30;;;0.20;;
31114;SDS011;17764;47.152;9.828;2023-04-24T02:19:04;0.53;;;0.20;;
31114;SDS011;17764;47.152;9.828;2023-04-24T02:21:31;1.07;;;0.30;;
31114;SDS011;17764;47.152;9.828;2023-04-24T02:23:57;0.30;;;0.20;;
31114;SDS011;17764;47.152;9.828;2023-04-24T02:26:23;0.60;;;0.20;;
31114;SDS011;17764;47.152;9.828;2023-04-24T02:28:50;0.20;;;0.20;;
31114;SDS011;17764;47.152;9.828;2023-04-24T02:31:16;2.17;;;0.20;;
31114;SDS011;17764;47.152;9.828;2023-04-24T02:33:42;0.30;;;0.30;;
31114;SDS011;17764;47.152;9.828;2023-04-24T02:36:08;0.90;;;0.23;;
31114;SDS011;17764;47.152;9.828;2023-04-24T02:38:34;0.93;;;0.40;;
31114;SDS011;17764;47.152;9.828;2023-04-24T02:41:00;0.60;;;0.40;;
31114;SDS011;17764;47.152;9.828;2023-04-24T02:43:27;0.40;;;0.20;;
31114;SDS011;17764;47.152;9.828;2023-04-24T02:45:53;0.40;;;0.20;;
31114;SDS011;17764;47.152;9.828;2023-04-24T02:48:19;0.77;;;0.20;;
31114;SDS011;17764;47.152;9.828;2023-04-24T02:50:46;0.70;;;0.20;;
31114;SDS011;17764;47.152;9.828;2023-04-24T02:53:12;0.30;;;0.20;;
31114;SDS011;17764;47.152;9.828;2023-04-24T02:55:38;0.20;;;0.20;;
31114;SDS011;17764;47.152;9.828;2023-04-24T02:58:04;0.13;;;0.13;;
31114;SDS011;17764;47.152;9.828;2023-04-24T03:00:31;0.60;;;0.37;;
31114;SDS011;17764;47.152;9.828;2023-04-24T03:02:57;0.23;;;0.20;;
31114;SDS011;17764;47.152;9.828;2023-04-24T03:05:22;0.70;;;0.30;;
31114;SDS011;17764;47.152;9.828;2023-04-24T03:07:48;0.50;;;0.20;;
31114;SDS011;17764;47.152;9.828;2023-04-24T03:10:15;0.87;;;0.27;;
31114;SDS011;17764;47.152;9.828;2023-04-24T03:12:41;1.70;;;0.30;;
31114;SDS011;17764;47.152;9.828;2023-04-24T03:15:09;0.43;;;0.30;;
31114;SDS011;17764;47.152;9.828;2023-04-24T03:17:35;0.43;;;0.20;;
31114;SDS011;17764;47.152;9.828;2023-04-24T03:20:02;0.47;;;0.40;;
31114;SDS011;17764;47.152;9.828;2023-04-24T03:22:30;1.73;;;1.00;;
31114;SDS011;17764;47.152;9.828;2023-04-24T03:24:57;1.20;;;0.70;;
31114;SDS011;17764;47.152;9.828;2023-04-24T03:27:25;1.00;;;0.60;;
31114;SDS011;17764;47.152;9.828;2023-04-24T03:29:51;1.47;;;0.40;;
31114;SDS011;17764;47.152;9.828;2023-04-24T03:32:21;0.47;;;0.30;;
31114;SDS011;17764;47.152;9.828;2023-04-24T03:34:48;0.47;;;0.23;;
31114;SDS011;17764;47.152;9.828;2023-04-24T03:37:15;0.43;;;0.20;;
31114;SDS011;17764;47.152;9.828;2023-04-24T03:39:41;0.37;;;0.20;;
31114;SDS011;17764;47.152;9.828;2023-04-24T03:42:07;0.63;;;0.30;;
31114;SDS011;17764;47.152;9.828;2023-04-24T03:44:33;0.40;;;0.20;;
31114;SDS011;17764;47.152;9.828;2023-04-24T03:46:59;0.27;;;0.20;;
31114;SDS011;17764;47.152;9.828;2023-04-24T03:49:25;0.13;;;0.10;;
31114;SDS011;17764;47.152;9.828;2023-04-24T03:51:51;0.50;;;0.27;;
31114;SDS011;17764;47.152;9.828;2023-04-24T03:54:20;0.73;;;0.20;;
31114;SDS011;17764;47.152;9.828;2023-04-24T03:56:46;1.13;;;0.50;;
31114;SDS011;17764;47.152;9.828;2023-04-24T03:59:12;0.40;;;0.30;;
31114;SDS011;17764;47.152;9.828;2023-04-24T04:01:39;0.40;;;0.30;;
31114;SDS011;17764;47.152;9.828;2023-04-24T04:04:06;1.03;;;0.37;;
31114;SDS011;17764;47.152;9.828;2023-04-24T04:06:32;0.33;;;0.20;;
31114;SDS011;17764;47.152;9.828;2023-04-24T04:08:59;0.40;;;0.33;;
31114;SDS011;17764;47.152;9.828;2023-04-24T04:11:28;0.63;;;0.30;;
31114;SDS011;17764;47.152;9.828;2023-04-24T04:13:54;0.97;;;0.30;;
31114;SDS011;17764;47.152;9.828;2023-04-24T04:16:19;0.97;;;0.40;;
31114;SDS011;17764;47.152;9.828;2023-04-24T04:18:45;0.97;;;0.40;;
31114;SDS011;17764;47.152;9.828;2023-04-24T04:21:11;0.50;;;0.30;;
31114;SDS011;17764;47.152;9.828;2023-04-24T04:23:37;0.47;;;0.40;;
31114;SDS011;17764;47.152;9.828;2023-04-24T04:26:04;0.70;;;0.40;;
31114;SDS011;17764;47.152;9.828;2023-04-24T04:28:30;1.33;;;0.30;;
31114;SDS011;17764;47.152;9.828;2023-04-24T04:30:57;0.40;;;0.30;;
31114;SDS011;17764;47.152;9.828;2023-04-24T04:33:24;0.67;;;0.30;;
31114;SDS011;17764;47.152;9.828;2023-04-24T04:35:51;0.23;;;0.20;;
31114;SDS011;17764;47.152;9.828;2023-04-24T04:38:17;1.23;;;0.40;;
31114;SDS011;17764;47.152;9.828;2023-04-24T04:40:44;0.50;;;0.30;;
31114;SDS011;17764;47.152;9.828;2023-04-24T04:43:10;0.60;;;0.20;;
31114;SDS011;17764;47.152;9.828;2023-04-24T04:45:36;0.50;;;0.27;;
31114;SDS011;17764;47.152;9.828;2023-04-24T04:48:04;1.60;;;0.30;;
31114;SDS011;17764;47.152;9.828;2023-04-24T04:50:32;0.77;;;0.30;;
31114;SDS011;17764;47.152;9.828;2023-04-24T04:52:58;0.37;;;0.33;;
31114;SDS011;17764;47.152;9.828;2023-04-24T04:55:24;1.30;;;0.50;;
31114;SDS011;17764;47.152;9.828;2023-04-24T04:57:51;0.43;;;0.33;;
31114;SDS011;17764;47.152;9.828;2023-04-24T05:00:17;0.57;;;0.30;;
31114;SDS011;17764;47.152;9.828;2023-04-24T05:02:44;0.80;;;0.40;;
31114;SDS011;17764;47.152;9.828;2023-04-24T05:05:10;0.40;;;0.37;;
31114;SDS011;17764;47.152;9.828;2023-04-24T05:07:36;0.30;;;0.20;;
31114;SDS011;17764;47.152;9.828;2023-04-24T05:10:02;0.53;;;0.27;;
31114;SDS011;17764;47.152;9.828;2023-04-24T05:12:28;1.03;;;0.33;;
31114;SDS011;17764;47.152;9.828;2023-04-24T05:14:54;0.30;;;0.20;;
31114;SDS011;17764;47.152;9.828;2023-04-24T05:17:20;1.07;;;0.30;;
31114;SDS011;17764;47.152;9.828;2023-04-24T05:19:47;0.23;;;0.20;;
31114;SDS011;17764;47.152;9.828;2023-04-24T05:22:13;1.10;;;0.40;;
31114;SDS011;17764;47.152;9.828;2023-04-24T05:24:41;0.43;;;0.30;;
31114;SDS011;17764;47.152;9.828;2023-04-24T05:27:07;0.77;;;0.20;;
31114;SDS011;17764;47.152;9.828;2023-04-24T05:29:33;1.10;;;0.30;;
31114;SDS011;17764;47.152;9.828;2023-04-24T05:31:59;0.67;;;0.30;;
31114;SDS011;17764;47.152;9.828;2023-04-24T05:34:27;0.83;;;0.37;;
31114;SDS011;17764;47.152;9.828;2023-04-24T05:36:53;1.00;;;0.40;;
31114;SDS011;17764;47.152;9.828;2023-04-24T05:39:19;0.53;;;0.40;;
31114;SDS011;17764;47.152;9.828;2023-04-24T05:41:45;1.17;;;0.30;;
31114;SDS011;17764;47.152;9.828;2023-04-24T05:44:11;0.40;;;0.30;;
31114;SDS011;17764;47.152;9.828;2023-04-24T05:46:37;0.37;;;0.30;;
31114;SDS011;17764;47.152;9.828;2023-04-24T05:49:03;1.10;;;0.50;;
31114;SDS011;17764;47.152;9.828;2023-04-24T05:51:29;0.47;;;0.30;;
31114;SDS011;17764;47.152;9.828;2023-04-24T05:53:56;0.40;;;0.20;;
31114;SDS011;17764;47.152;9.828;2023-04-24T05:56:22;0.40;;;0.33;;
31114;SDS011;17764;47.152;9.828;2023-04-24T05:58:48;0.50;;;0.30;;
31114;SDS011;17764;47.152;9.828;2023-04-24T06:01:14;1.13;;;0.30;;
31114;SDS011;17764;47.152;9.828;2023-04-24T06:03:43;0.67;;;0.43;;
31114;SDS011;17764;47.152;9.828;2023-04-24T06:06:09;1.07;;;0.30;;
31114;SDS011;17764;47.152;9.828;2023-04-24T06:08:35;1.00;;;0.47;;
31114;SDS011;17764;47.152;9.828;2023-04-24T06:11:01;0.30;;;0.30;;
31114;SDS011;17764;47.152;9.828;2023-04-24T06:13:27;0.43;;;0.40;;
31114;SDS011;17764;47.152;9.828;2023-04-24T06:15:53;0.87;;;0.40;;
31114;SDS011;17764;47.152;9.828;2023-04-24T06:18:19;0.80;;;0.40;;
31114;SDS011;17764;47.152;9.828;2023-04-24T06:20:46;0.43;;;0.30;;
31114;SDS011;17764;47.152;9.828;2023-04-24T06:23:12;1.23;;;0.40;;
31114;SDS011;17764;47.152;9.828;2023-04-24T06:25:38;1.30;;;0.60;;
31114;SDS011;17764;47.152;9.828;2023-04-24T06:28:04;0.70;;;0.50;;
31114;SDS011;17764;47.152;9.828;2023-04-24T06:30:31;0.70;;;0.47;;
31114;SDS011;17764;47.152;9.828;2023-04-24T06:32:57;0.33;;;0.30;;
31114;SDS011;17764;47.152;9.828;2023-04-24T06:35:23;1.03;;;0.50;;
31114;SDS011;17764;47.152;9.828;2023-04-24T06:37:49;1.07;;;0.50;;
31114;SDS011;17764;47.152;9.828;2023-04-24T06:40:15;0.63;;;0.60;;
31114;SDS011;17764;47.152;9.828;2023-04-24T06:42:45;0.93;;;0.70;;
31114;SDS011;17764;47.152;9.828;2023-04-24T06:45:13;0.83;;;0.50;;
31114;SDS011;17764;47.152;9.828;2023-04-24T06:47:39;0.67;;;0.50;;
31114;SDS011;17764;47.152;9.828;2023-04-24T06:50:05;0.87;;;0.60;;
31114;SDS011;17764;47.152;9.828;2023-04-24T06:52:31;0.70;;;0.47;;
31114;SDS011;17764;47.152;9.828;2023-04-24T06:55:01;1.20;;;0.70;;
31114;SDS011;17764;47.152;9.828;2023-04-24T06:57:28;0.93;;;0.70;;
31114;SDS011;17764;47.152;9.828;2023-04-24T06:59:54;1.00;;;0.60;;
31114;SDS011;17764;47.152;9.828;2023-04-24T07:02:20;1.40;;;0.77;;
31114;SDS011;17764;47.152;9.828;2023-04-24T07:04:46;1.07;;;0.50;;
31114;SDS011;17764;47.152;9.828;2023-04-24T07:07:13;0.97;;;0.60;;
31114;SDS011;17764;47.152;9.828;2023-04-24T07:09:42;0.60;;;0.57;;
31114;SDS011;17764;47.152;9.828;2023-04-24T07:12:10;0.77;;;0.57;;
31114;SDS011;17764;47.152;9.828;2023-04-24T07:14:36;1.13;;;0.63;;
31114;SDS011;17764;47.152;9.828;2023-04-24T07:17:03;0.97;;;0.67;;
31114;SDS011;17764;47.152;9.828;2023-04-24T07:19:30;0.57;;;0.57;;
31114;SDS011;17764;47.152;9.828;2023-04-24T07:21:56;0.83;;;0.50;;
31114;SDS011;17764;47.152;9.828;2023-04-24T07:24:23;2.00;;;0.60;;
31114;SDS011;17764;47.152;9.828;2023-04-24T07:26:50;1.27;;;0.90;;
31114;SDS011;17764;47.152;9.828;2023-04-24T07:29:16;1.73;;;1.10;;
31114;SDS011;17764;47.152;9.828;2023-04-24T07:31:42;1.57;;;1.20;;
31114;SDS011;17764;47.152;9.828;2023-04-24T07:34:09;1.63;;;1.30;;
31114;SDS011;17764;47.152;9.828;2023-04-24T07:45:15;2.10;;;0.60;;
31114;SDS011;17764;47.152;9.828;2023-04-24T07:47:42;2.70;;;0.80;;
31114;SDS011;17764;47.152;9.828;2023-04-24T07:50:09;1.37;;;0.70;;
31114;SDS011;17764;47.152;9.828;2023-04-24T07:52:38;1.00;;;0.53;;
31114;SDS011;17764;47.152;9.828;2023-04-24T07:55:04;0.60;;;0.50;;
31114;SDS011;17764;47.152;9.828;2023-04-24T07:57:30;1.10;;;0.90;;
31114;SDS011;17764;47.152;9.828;2023-04-24T07:59:56;1.33;;;0.60;;
31114;SDS011;17764;47.152;9.828;2023-04-24T08:02:22;1.23;;;0.80;;
31114;SDS011;17764;47.152;9.828;2023-04-24T08:04:52;1.47;;;0.70;;
31114;SDS011;17764;47.152;9.828;2023-04-24T08:07:19;0.90;;;0.60;;
31114;SDS011;17764;47.152;9.828;2023-04-24T08:09:45;1.50;;;0.57;;
31114;SDS011;17764;47.152;9.828;2023-04-24T08:12:12;0.87;;;0.50;;
31114;SDS011;17764;47.152;9.828;2023-04-24T08:14:38;0.80;;;0.50;;
31114;SDS011;17764;47.152;9.828;2023-04-24T08:17:04;0.90;;;0.67;;
31114;SDS011;17764;47.152;9.828;2023-04-24T08:19:30;0.50;;;0.37;;
31114;SDS011;17764;47.152;9.828;2023-04-24T08:21:56;1.27;;;0.50;;
31114;SDS011;17764;47.152;9.828;2023-04-24T08:24:22;1.37;;;0.77;;
31114;SDS011;17764;47.152;9.828;2023-04-24T08:26:48;0.70;;;0.47;;
31114;SDS011;17764;47.152;9.828;2023-04-24T08:29:19;1.00;;;0.60;;
31114;SDS011;17764;47.152;9.828;2023-04-24T08:31:45;0.90;;;0.63;;
31114;SDS011;17764;47.152;9.828;2023-04-24T08:34:11;0.90;;;0.63;;
31114;SDS011;17764;47.152;9.828;2023-04-24T08:36:37;1.30;;;0.80;;
31114;SDS011;17764;47.152;9.828;2023-04-24T08:39:03;1.33;;;0.60;;
31114;SDS011;17764;47.152;9.828;2023-04-24T08:41:29;0.80;;;0.50;;
31114;SDS011;17764;47.152;9.828;2023-04-24T08:43:55;0.87;;;0.50;;
31114;SDS011;17764;47.152;9.828;2023-04-24T08:46:23;0.70;;;0.50;;
31114;SDS011;17764;47.152;9.828;2023-04-24T08:48:50;0.40;;;0.40;;
31114;SDS011;17764;47.152;9.828;2023-04-24T08:51:16;0.83;;;0.40;;
31114;SDS011;17764;47.152;9.828;2023-04-24T08:53:43;0.57;;;0.50;;
31114;SDS011;17764;47.152;9.828;2023-04-24T08:56:09;0.53;;;0.40;;
31114;SDS011;17764;47.152;9.828;2023-04-24T08:58:35;0.60;;;0.30;;
31114;SDS011;17764;47.152;9.828;2023-04-24T09:01:01;0.70;;;0.50;;
31114;SDS011;17764;47.152;9.828;2023-04-24T09:03:28;1.10;;;0.50;;
31114;SDS011;17764;47.152;9.828;2023-04-24T09:05:54;0.50;;;0.30;;
31114;SDS011;17764;47.152;9.828;2023-04-24T09:08:21;1.43;;;0.40;;
31114;SDS011;17764;47.152;9.828;2023-04-24T09:10:49;1.37;;;0.60;;
31114;SDS011;17764;47.152;9.828;2023-04-24T09:13:15;0.77;;;0.60;;
31114;SDS011;17764;47.152;9.828;2023-04-24T09:15:42;1.20;;;0.60;;
31114;SDS011;17764;47.152;9.828;2023-04-24T09:18:08;0.77;;;0.53;;
31114;SDS011;17764;47.152;9.828;2023-04-24T09:20:34;1.60;;;0.70;;
31114;SDS011;17764;47.152;9.828;2023-04-24T09:23:01;1.67;;;0.80;;
31114;SDS011;17764;47.152;9.828;2023-04-24T09:25:33;1.63;;;0.70;;
31114;SDS011;17764;47.152;9.828;2023-04-24T09:28:03;1.83;;;0.60;;
31114;SDS011;17764;47.152;9.828;2023-04-24T09:30:31;2.47;;;0.70;;
31114;SDS011;17764;47.152;9.828;2023-04-24T09:33:13;1.63;;;0.70;;
31114;SDS011;17764;47.152;9.828;2023-04-24T09:35:40;1.13;;;0.43;;
31114;SDS011;17764;47.152;9.828;2023-04-24T09:38:15;0.90;;;0.40;;
31114;SDS011;17764;47.152;9.828;2023-04-24T09:40:42;0.87;;;0.83;;
31114;SDS011;17764;47.152;9.828;2023-04-24T09:43:10;1.57;;;1.47;;
31114;SDS011;17764;47.152;9.828;2023-04-24T09:45:37;2.70;;;2.40;;
31114;SDS011;17764;47.152;9.828;2023-04-24T09:48:04;2.90;;;2.70;;
31114;SDS011;17764;47.152;9.828;2023-04-24T09:50:31;2.17;;;2.03;;
31114;SDS011;17764;47.152;9.828;2023-04-24T09:53:06;1.63;;;1.30;;
31114;SDS011;17764;47.152;9.828;2023-04-24T09:55:39;1.07;;;1.00;;
31114;SDS011;17764;47.152;9.828;2023-04-24T09:58:09;0.80;;;0.80;;
31114;SDS011;17764;47.152;9.828;2023-04-24T10:00:35;0.93;;;0.70;;
31114;SDS011;17764;47.152;9.828;2023-04-24T10:03:02;1.10;;;0.90;;
31114;SDS011;17764;47.152;9.828;2023-04-24T10:05:31;0.80;;;0.70;;
31114;SDS011;17764;47.152;9.828;2023-04-24T10:08:00;1.30;;;0.97;;
31114;SDS011;17764;47.152;9.828;2023-04-24T10:10:28;1.50;;;0.70;;
31114;SDS011;17764;47.152;9.828;2023-04-24T10:12:55;1.00;;;0.57;;
31114;SDS011;17764;47.152;9.828;2023-04-24T10:15:21;0.50;;;0.40;;
31114;SDS011;17764;47.152;9.828;2023-04-24T10:17:50;1.10;;;0.50;;
31114;SDS011;17764;47.152;9.828;2023-04-24T10:20:23;0.37;;;0.37;;
31114;SDS011;17764;47.152;9.828;2023-04-24T10:22:50;0.53;;;0.50;;
31114;SDS011;17764;47.152;9.828;2023-04-24T10:25:20;0.50;;;0.50;;
31114;SDS011;17764;47.152;9.828;2023-04-24T10:27:47;0.60;;;0.37;;
31114;SDS011;17764;47.152;9.828;2023-04-24T10:30:13;0.63;;;0.30;;
31114;SDS011;17764;47.152;9.828;2023-04-24T10:32:39;0.40;;;0.40;;
31114;SDS011;17764;47.152;9.828;2023-04-24T10:35:06;0.93;;;0.67;;
31114;SDS011;17764;47.152;9.828;2023-04-24T10:37:49;2.63;;;0.40;;
31114;SDS011;17764;47.152;9.828;2023-04-24T10:40:17;0.67;;;0.43;;
31114;SDS011;17764;47.152;9.828;2023-04-24T10:42:46;0.47;;;0.37;;
31114;SDS011;17764;47.152;9.828;2023-04-24T10:45:17;0.77;;;0.57;;
31114;SDS011;17764;47.152;9.828;2023-04-24T10:47:50;0.43;;;0.30;;
31114;SDS011;17764;47.152;9.828;2023-04-24T10:50:16;0.63;;;0.50;;
31114;SDS011;17764;47.152;9.828;2023-04-24T10:52:49;0.30;;;0.30;;
31114;SDS011;17764;47.152;9.828;2023-04-24T10:55:36;0.37;;;0.30;;
31114;SDS011;17764;47.152;9.828;2023-04-24T10:58:03;0.40;;;0.30;;
31114;SDS011;17764;47.152;9.828;2023-04-24T11:00:30;0.20;;;0.20;;
31114;SDS011;17764;47.152;9.828;2023-04-24T11:02:56;0.23;;;0.23;;
31114;SDS011;17764;47.152;9.828;2023-04-24T11:05:22;0.30;;;0.30;;
31114;SDS011;17764;47.152;9.828;2023-04-24T11:10:58;0.73;;;0.50;;
31114;SDS011;17764;47.152;9.828;2023-04-24T11:13:25;0.33;;;0.30;;
31114;SDS011;17764;47.152;9.828;2023-04-24T11:18:37;2.70;;;0.50;;
31114;SDS011;17764;47.152;9.828;2023-04-24T11:21:15;1.00;;;0.70;;
31114;SDS011;17764;47.152;9.828;2023-04-24T11:23:42;0.83;;;0.60;;
31114;SDS011;17764;47.152;9.828;2023-04-24T11:26:17;1.60;;;0.70;;
31114;SDS011;17764;47.152;9.828;2023-04-24T11:28:47;0.93;;;0.70;;
31114;SDS011;17764;47.152;9.828;2023-04-24T11:34:05;1.27;;;0.80;;
31114;SDS011;17764;47.152;9.828;2023-04-24T11:36:31;1.30;;;0.70;;
31114;SDS011;17764;47.152;9.828;2023-04-24T11:38:57;0.50;;;0.50;;
31114;SDS011;17764;47.152;9.828;2023-04-24T11:41:23;1.07;;;0.70;;
31114;SDS011;17764;47.152;9.828;2023-04-24T11:43:50;1.47;;;0.73;;
31114;SDS011;17764;47.152;9.828;2023-04-24T11:46:17;3.03;;;0.70;;
31114;SDS011;17764;47.152;9.828;2023-04-24T11:48:45;1.23;;;0.70;;
31114;SDS011;17764;47.152;9.828;2023-04-24T11:51:12;2.10;;;0.97;;
31114;SDS011;17764;47.152;9.828;2023-04-24T11:53:39;1.00;;;0.60;;
31114;SDS011;17764;47.152;9.828;2023-04-24T11:56:06;1.60;;;1.00;;
31114;SDS011;17764;47.152;9.828;2023-04-24T11:58:35;1.10;;;0.80;;
31114;SDS011;17764;47.152;9.828;2023-04-24T12:01:01;1.60;;;0.70;;
31114;SDS011;17764;47.152;9.828;2023-04-24T12:03:30;2.20;;;0.93;;
31114;SDS011;17764;47.152;9.828;2023-04-24T12:06:08;2.27;;;1.07;;
31114;SDS011;17764;47.152;9.828;2023-04-24T12:08:37;0.97;;;0.70;;
31114;SDS011;17764;47.152;9.828;2023-04-24T12:11:05;0.93;;;0.70;;
31114;SDS011;17764;47.152;9.828;2023-04-24T12:13:34;1.30;;;0.90;;
31114;SDS011;17764;47.152;9.828;2023-04-24T12:16:02;1.17;;;0.70;;
31114;SDS011;17764;47.152;9.828;2023-04-24T12:18:30;1.43;;;0.80;;
31114;SDS011;17764;47.152;9.828;2023-04-24T12:21:14;1.73;;;0.80;;
31114;SDS011;17764;47.152;9.828;2023-04-24T12:23:54;0.97;;;0.60;;
31114;SDS011;17764;47.152;9.828;2023-04-24T12:26:20;1.43;;;0.87;;
31114;SDS011;17764;47.152;9.828;2023-04-24T12:28:48;0.90;;;0.63;;
31114;SDS011;17764;47.152;9.828;2023-04-24T12:31:15;2.03;;;0.80;;
31114;SDS011;17764;47.152;9.828;2023-04-24T12:33:41;0.90;;;0.70;;
31114;SDS011;17764;47.152;9.828;2023-04-24T12:36:09;1.80;;;0.80;;
31114;SDS011;17764;47.152;9.828;2023-04-24T12:38:37;1.33;;;0.80;;
31114;SDS011;17764;47.152;9.828;2023-04-24T12:41:12;1.30;;;0.77;;
31114;SDS011;17764;47.152;9.828;2023-04-24T12:44:01;1.23;;;0.73;;
31114;SDS011;17764;47.152;9.828;2023-04-24T12:46:26;1.67;;;0.90;;
31114;SDS011;17764;47.152;9.828;2023-04-24T12:48:55;2.07;;;0.70;;
31114;SDS011;17764;47.152;9.828;2023-04-24T12:51:23;1.40;;;0.80;;
31114;SDS011;17764;47.152;9.828;2023-04-24T12:53:49;0.97;;;0.70;;
31114;SDS011;17764;47.152;9.828;2023-04-24T12:56:16;1.30;;;0.80;;
31114;SDS011;17764;47.152;9.828;2023-04-24T12:58:42;1.07;;;0.80;;
31114;SDS011;17764;47.152;9.828;2023-04-24T13:01:08;2.40;;;0.90;;
31114;SDS011;17764;47.152;9.828;2023-04-24T13:03:34;1.10;;;0.80;;
31114;SDS011;17764;47.152;9.828;2023-04-24T13:06:00;1.67;;;1.00;;
31114;SDS011;17764;47.152;9.828;2023-04-24T13:08:27;2.03;;;0.80;;
31114;SDS011;17764;47.152;9.828;2023-04-24T13:10:53;2.20;;;0.80;;
31114;SDS011;17764;47.152;9.828;2023-04-24T13:13:19;3.40;;;0.87;;
31114;SDS011;17764;47.152;9.828;2023-04-24T13:15:45;3.03;;;1.23;;
31114;SDS011;17764;47.152;9.828;2023-04-24T13:18:11;1.73;;;0.90;;
31114;SDS011;17764;47.152;9.828;2023-04-24T13:20:37;1.30;;;0.90;;
31114;SDS011;17764;47.152;9.828;2023-04-24T13:23:03;3.00;;;1.10;;
31114;SDS011;17764;47.152;9.828;2023-04-24T13:25:30;2.17;;;0.80;;
31114;SDS011;17764;47.152;9.828;2023-04-24T13:27:56;1.23;;;0.70;;
31114;SDS011;17764;47.152;9.828;2023-04-24T13:30:24;2.20;;;1.20;;
31114;SDS011;17764;47.152;9.828;2023-04-24T13:32:49;1.70;;;0.90;;
31114;SDS011;17764;47.152;9.828;2023-04-24T13:35:15;1.77;;;0.90;;
31114;SDS011;17764;47.152;9.828;2023-04-24T13:37:41;1.30;;;0.93;;
31114;SDS011;17764;47.152;9.828;2023-04-24T13:40:07;0.80;;;0.77;;
31114;SDS011;17764;47.152;9.828;2023-04-24T13:42:34;1.50;;;0.77;;
31114;SDS011;17764;47.152;9.828;2023-04-24T13:45:00;2.13;;;0.90;;
31114;SDS011;17764;47.152;9.828;2023-04-24T13:47:26;3.27;;;0.93;;
31114;SDS011;17764;47.152;9.828;2023-04-24T13:49:52;3.03;;;0.90;;
31114;SDS011;17764;47.152;9.828;2023-04-24T13:52:19;1.67;;;0.70;;
31114;SDS011;17764;47.152;9.828;2023-04-24T13:54:45;2.30;;;0.80;;
31114;SDS011;17764;47.152;9.828;2023-04-24T13:57:11;0.80;;;0.67;;
31114;SDS011;17764;47.152;9.828;2023-04-24T13:59:36;1.20;;;0.67;;
31114;SDS011;17764;47.152;9.828;2023-04-24T14:02:02;2.80;;;0.80;;
31114;SDS011;17764;47.152;9.828;2023-04-24T14:04:28;1.03;;;0.70;;
31114;SDS011;17764;47.152;9.828;2023-04-24T14:06:54;1.57;;;0.80;;
31114;SDS011;17764;47.152;9.828;2023-04-24T14:09:20;1.53;;;0.87;;
31114;SDS011;17764;47.152;9.828;2023-04-24T14:11:46;1.33;;;0.70;;
31114;SDS011;17764;47.152;9.828;2023-04-24T14:14:12;1.73;;;0.80;;
31114;SDS011;17764;47.152;9.828;2023-04-24T14:16:38;1.40;;;0.70;;
31114;SDS011;17764;47.152;9.828;2023-04-24T14:19:04;1.20;;;0.90;;
31114;SDS011;17764;47.152;9.828;2023-04-24T14:21:31;4.20;;;1.57;;
31114;SDS011;17764;47.152;9.828;2023-04-24T14:23:57;1.63;;;0.80;;
31114;SDS011;17764;47.152;9.828;2023-04-24T14:26:23;1.07;;;0.70;;
31114;SDS011;17764;47.152;9.828;2023-04-24T14:28:50;1.80;;;0.90;;
31114;SDS011;17764;47.152;9.828;2023-04-24T14:31:17;2.40;;;0.90;;
31114;SDS011;17764;47.152;9.828;2023-04-24T14:33:43;1.30;;;0.90;;
31114;SDS011;17764;47.152;9.828;2023-04-24T14:36:10;1.27;;;0.70;;
31114;SDS011;17764;47.152;9.828;2023-04-24T14:38:36;2.00;;;0.90;;
31114;SDS011;17764;47.152;9.828;2023-04-24T14:41:02;1.40;;;0.70;;
31114;SDS011;17764;47.152;9.828;2023-04-24T14:43:34;1.17;;;0.80;;
31114;SDS011;17764;47.152;9.828;2023-04-24T14:46:00;1.03;;;0.80;;
31114;SDS011;17764;47.152;9.828;2023-04-24T14:48:26;2.00;;;0.70;;
31114;SDS011;17764;47.152;9.828;2023-04-24T14:50:52;1.23;;;0.70;;
31114;SDS011;17764;47.152;9.828;2023-04-24T14:53:20;1.20;;;0.70;;
31114;SDS011;17764;47.152;9.828;2023-04-24T14:55:46;1.13;;;0.50;;
31114;SDS011;17764;47.152;9.828;2023-04-24T14:58:12;1.07;;;0.70;;
31114;SDS011;17764;47.152;9.828;2023-04-24T15:00:38;1.57;;;0.80;;
31114;SDS011;17764;47.152;9.828;2023-04-24T15:03:04;2.47;;;1.23;;
31114;SDS011;17764;47.152;9.828;2023-04-24T15:05:30;2.53;;;1.27;;